Aeroporto :
LOGIN :

Iscrizione | Disclaimer

   EN    FR    IT 

 










Sommario :    VFR   VFR Marginale   IFR   IFR Intensivo   IFR Molto Intensivo
Visibilità : 
Base nubi : 
>= 8 km
>= 3000ft
5 / 8 km
1000 / 3000 ft
1500m / 5 km
500 / 1000 ft
800 / 1500m
200 / 500 ft
< 800m
< 200 ft
Simboli :   Temporali  Nebbia  Neve Forte  Precipitazioni Forti  Vento > 20 kt
SIGMETs :   Varie  Temporali  Ghiacco  Turbolenza  Onda orograficha  Ceneri Vulcaniche







- Altitudine del aeroporto : 1046 ft
- Codice IATA : NUE


EDDN - Nuremberg

ULTIMO METAR :
  • 201720Z 20009KT 170V230 CAVOK 29/14 Q1013 NOSIG

METARs OBSOLETI :
  • 201650Z 20009KT 170V230 CAVOK 30/14 Q1013 NOSIG
  • 201620Z 21012KT 180V240 9999 FEW070TCU 30/14 Q1013 TEMPO 26015G25KT TSRA SCT050CB
  • 201550Z 24009KT 210V280 9999 FEW070TCU 31/13 Q1013 TEMPO 26015G25KT TSRA SCT050CB
  • 201520Z 21009KT 180V260 CAVOK 32/12 Q1013 TEMPO 26015G25KT TSRA SCT050CB
  • 201450Z 19009KT 160V230 CAVOK 32/13 Q1013 TEMPO 26015G25KT

TAF TAF EDDN
Valido dal 20 a 18 ore il 21 a 18 ore UTC


201700Z 2018/2118 22004KT CAVOK
PROB40
TEMPO 2023/2104 26020G35KT TSRA SCT050CB
BECMG 2106/2108 26010KT
PROB30
TEMPO 2111/2114 28015G25KT TSRA BKN030CB
Nessun NOTAM noto per questo aeroporto.



MetMap, La meteo Aeronautica in un colpo d'occhio ! - Copyright ORBIFLY Dicembre 2007 - Disclaimer

ORBIFLY MET'MAP TEAM :

Programmazione e sviluppo : Alexandra Zaïnal
Concezione e sviluppo : Baudouin d'Aumeries
Co-Programmazione e sviluppo : Marc-Olivier Méhu
Supporto tecnico e logistico : Manuel Goepfert
Aiuto per la traduzione : Arnaldo La Scala

Contatto : metmap@orbifly.com




FONTI E CREDITI :

   NOAA